Aviation Digital Data Service (ADDS)

Output produced by TAFs form (0147 UTC 20 October 2017)
found at http://aviationweather.gov/adds/tafs/
 
KCNM 192324Z 2000/2024 VRB05KT P6SM BKN080 
     TEMPO 2005/2009 6SM RA OVC010 
     FM200900 VRB05KT P6SM BKN015 
     FM201700 18012G19KT P6SM SCT250